< < Back
Terminal Aerodrome Forecast


Current Version              Previous Versions:   1  2  3  4  5  6  7  8  9  

Terminal Aerodrome Forecast

897
FTUS42 KGSP 240531
TAFGSP
TAF
KGSP 240531Z 2406/2506 VRB03KT P6SM BKN080
     FM241300 23005KT P6SM FEW080
     FM241700 23007KT P6SM SCT250
     FM250100 24003KT P6SM SCT250=

Latest METAR

119
SAUS70 KWBC 251300
MTRGSP
METAR KGSP 251253Z 09003KT 10SM CLR 21/14 A3023 RMK AO2 SLP228
T02060139


USA.gov is the U.S. government's official web portal to all federal, state and local government web resources and services.